createdAt,value
2022-11-17T00:00:42.791Z,1.04
2022-11-17T00:01:42.881Z,1.04
2022-11-17T00:02:43.096Z,1.04
2022-11-17T00:03:43.200Z,1.04
2022-11-17T00:04:43.345Z,1.04
2022-11-17T00:05:43.455Z,1.04
2022-11-17T00:06:43.594Z,1.04
2022-11-17T00:07:43.700Z,1.04
2022-11-17T00:08:43.853Z,1.04
2022-11-17T00:09:44.009Z,1.04
2022-11-17T00:10:44.164Z,1.04
2022-11-17T00:11:44.316Z,1.04
2022-11-17T00:12:44.459Z,1.04
2022-11-17T00:13:44.623Z,1.04
2022-11-17T00:14:44.769Z,1.04
2022-11-17T00:15:44.904Z,1.04
2022-11-17T00:16:45.026Z,1.04
2022-11-17T00:17:45.190Z,1.04
2022-11-17T00:18:45.329Z,1.04
2022-11-17T00:19:45.423Z,1.04
2022-11-17T00:20:45.577Z,1.04
2022-11-17T00:21:45.717Z,1.04
2022-11-17T00:22:45.866Z,1.04
2022-11-17T00:23:46.030Z,1.04
2022-11-17T00:24:46.175Z,1.04
2022-11-17T00:25:46.893Z,1.04
2022-11-17T00:26:46.438Z,1.04
2022-11-17T00:27:46.594Z,1.04
2022-11-17T00:28:46.695Z,1.04
2022-11-17T00:29:46.839Z,1.04
2022-11-17T00:30:52.028Z,1.04
2022-11-17T00:31:47.042Z,1.04
2022-11-17T00:32:47.195Z,1.04
2022-11-17T00:33:47.356Z,1.04
2022-11-17T00:34:47.494Z,1.04
2022-11-17T00:35:47.649Z,1.04
2022-11-17T00:36:47.747Z,1.04
2022-11-17T00:37:47.903Z,1.04
2022-11-17T00:38:48.012Z,1.04
2022-11-17T00:39:48.139Z,1.04
2022-11-17T00:40:48.263Z,1.04
2022-11-17T00:41:48.377Z,1.04
2022-11-17T00:42:48.489Z,1.04
2022-11-17T00:43:48.611Z,1.04
2022-11-17T00:44:48.765Z,1.04
2022-11-17T00:45:48.898Z,1.04
2022-11-17T00:46:49.069Z,1.04
2022-11-17T00:47:49.224Z,1.04
2022-11-17T00:48:49.371Z,1.04
2022-11-17T00:49:49.467Z,1.04
2022-11-17T00:50:49.627Z,1.04
2022-11-17T00:51:49.814Z,1.04
2022-11-17T00:52:49.918Z,1.04
2022-11-17T00:53:50.069Z,1.04
2022-11-17T00:54:50.216Z,1.04
2022-11-17T00:55:50.413Z,1.04
2022-11-17T00:56:50.533Z,1.04
2022-11-17T00:57:50.676Z,1.04
2022-11-17T00:58:50.828Z,1.04
2022-11-17T00:59:50.982Z,1.04
2022-11-17T01:00:51.135Z,1.04
2022-11-17T01:01:51.336Z,1.04
2022-11-17T01:02:51.440Z,1.04
2022-11-17T01:03:51.606Z,1.04
2022-11-17T01:04:51.749Z,1.04
2022-11-17T01:05:51.911Z,1.04
2022-11-17T01:06:52.090Z,1.04
2022-11-17T01:07:52.201Z,1.04
2022-11-17T01:08:52.352Z,1.04
2022-11-17T01:09:52.502Z,1.04
2022-11-17T01:10:52.658Z,1.04
2022-11-17T01:11:52.799Z,1.04
2022-11-17T01:12:52.951Z,1.04
2022-11-17T01:13:53.103Z,1.04
2022-11-17T01:14:53.254Z,1.04
2022-11-17T01:15:53.392Z,1.04
2022-11-17T01:16:53.580Z,1.04
2022-11-17T01:17:53.667Z,1.04
2022-11-17T01:18:53.842Z,1.04
2022-11-17T01:19:53.983Z,1.04
2022-11-17T01:20:54.119Z,1.04
2022-11-17T01:21:54.269Z,1.04
2022-11-17T01:22:54.430Z,1.04
2022-11-17T01:23:54.568Z,1.04
2022-11-17T01:24:54.721Z,1.04
2022-11-17T01:25:54.876Z,1.04
2022-11-17T01:26:55.026Z,1.04
2022-11-17T01:27:55.179Z,1.04
2022-11-17T01:28:55.333Z,1.04
2022-11-17T01:29:55.477Z,1.04
2022-11-17T01:30:55.572Z,1.04
2022-11-17T01:31:55.668Z,1.04
2022-11-17T01:32:55.827Z,1.04
2022-11-17T01:33:55.933Z,1.04
2022-11-17T01:34:56.073Z,1.04
2022-11-17T01:35:56.239Z,1.04
2022-11-17T01:36:56.386Z,1.04
2022-11-17T01:37:56.535Z,1.04
2022-11-17T01:38:56.689Z,1.04
2022-11-17T01:39:56.849Z,1.04
2022-11-17T01:40:56.947Z,1.04
2022-11-17T01:41:57.043Z,1.04
2022-11-17T01:42:57.237Z,1.04
2022-11-17T01:43:57.360Z,1.04
2022-11-17T01:44:57.509Z,1.04
2022-11-17T01:45:57.604Z,1.04
2022-11-17T01:47:00.838Z,1.04
2022-11-17T01:47:57.912Z,1.04
2022-11-17T01:48:58.060Z,1.04
2022-11-17T01:49:58.208Z,1.04
2022-11-17T01:50:58.376Z,1.04
2022-11-17T01:51:58.518Z,1.04
2022-11-17T01:52:58.651Z,1.04
2022-11-17T01:53:58.780Z,1.04
2022-11-17T01:54:58.915Z,1.04
2022-11-17T01:55:59.078Z,1.04
2022-11-17T01:56:59.226Z,1.04
2022-11-17T01:57:59.384Z,1.04
2022-11-17T01:58:59.538Z,1.04
2022-11-17T01:59:59.685Z,1.04
2022-11-17T02:00:59.812Z,1.04
2022-11-17T02:01:59.952Z,1.04
2022-11-17T02:03:00.107Z,1.04
2022-11-17T02:04:00.240Z,1.04
2022-11-17T02:05:00.385Z,1.04
2022-11-17T02:06:00.540Z,1.04
2022-11-17T02:07:00.765Z,1.04
2022-11-17T02:08:00.852Z,1.04
2022-11-17T02:09:01.008Z,1.04
2022-11-17T02:10:01.150Z,1.04
2022-11-17T02:11:01.372Z,1.04
2022-11-17T02:12:01.442Z,1.04
2022-11-17T02:13:01.637Z,1.04
2022-11-17T02:14:01.753Z,1.04
2022-11-17T02:15:01.900Z,1.04
2022-11-17T02:16:02.049Z,1.04
2022-11-17T02:17:09.064Z,1.04
2022-11-17T02:18:02.363Z,1.04
2022-11-17T02:19:02.530Z,1.04
2022-11-17T02:20:02.682Z,1.04
2022-11-17T02:21:02.809Z,1.04
2022-11-17T02:22:02.908Z,1.04
2022-11-17T02:23:03.094Z,1.04
2022-11-17T02:24:03.226Z,1.04
2022-11-17T02:25:03.377Z,1.04
2022-11-17T02:26:03.530Z,1.04
2022-11-17T02:27:03.665Z,1.04
2022-11-17T02:28:03.877Z,1.04
2022-11-17T02:29:04.046Z,1.04
2022-11-17T02:30:04.183Z,1.04
2022-11-17T02:31:04.315Z,1.04
2022-11-17T02:32:04.418Z,1.04
2022-11-17T02:33:04.576Z,1.04
2022-11-17T02:34:04.681Z,1.04
2022-11-17T02:35:04.845Z,1.04
2022-11-17T02:36:04.983Z,1.04
2022-11-17T02:37:05.135Z,1.04
2022-11-17T02:38:05.295Z,1.04
2022-11-17T02:39:05.441Z,1.04
2022-11-17T02:40:05.547Z,1.04
2022-11-17T02:41:05.706Z,1.04
2022-11-17T02:42:05.852Z,1.04
2022-11-17T02:43:06.000Z,1.04
2022-11-17T02:44:06.152Z,1.04
2022-11-17T02:45:06.320Z,1.04
2022-11-17T02:46:06.434Z,1.04
2022-11-17T02:47:06.550Z,1.04
2022-11-17T02:48:06.714Z,1.04
2022-11-17T02:49:06.854Z,1.04
2022-11-17T02:50:07.016Z,1.04
2022-11-17T02:51:07.154Z,1.04
2022-11-17T02:52:07.308Z,1.04
2022-11-17T02:53:07.472Z,1.04
2022-11-17T02:54:07.553Z,1.04
2022-11-17T02:55:07.720Z,1.04
2022-11-17T02:56:07.870Z,1.04
2022-11-17T02:57:08.019Z,1.04
2022-11-17T02:58:08.181Z,1.04
2022-11-17T02:59:08.338Z,1.04
2022-11-17T03:00:08.477Z,1.04
2022-11-17T03:01:08.680Z,1.04
2022-11-17T03:02:08.736Z,1.04
2022-11-17T03:03:08.875Z,1.04
2022-11-17T03:04:09.026Z,1.04
2022-11-17T03:05:09.263Z,1.04
2022-11-17T03:06:09.360Z,1.04
2022-11-17T03:07:09.465Z,1.04
2022-11-17T03:08:09.606Z,1.04
2022-11-17T03:09:09.746Z,1.04
2022-11-17T03:10:09.842Z,1.04
2022-11-17T03:11:09.990Z,1.04
2022-11-17T03:12:10.145Z,1.04
2022-11-17T03:13:10.291Z,1.04
2022-11-17T03:14:10.399Z,1.04
2022-11-17T03:15:10.554Z,1.04
2022-11-17T03:16:10.690Z,1.04
2022-11-17T03:17:10.900Z,1.04
2022-11-17T03:18:11.428Z,1.04
2022-11-17T03:19:11.197Z,1.04
2022-11-17T03:20:11.286Z,1.04
2022-11-17T03:21:11.459Z,1.04
2022-11-17T03:22:11.605Z,1.04
2022-11-17T03:23:11.798Z,1.04
2022-11-17T03:24:11.883Z,1.04
2022-11-17T03:25:11.987Z,1.04
2022-11-17T03:26:12.105Z,1.04
2022-11-17T03:27:12.268Z,1.04
2022-11-17T03:28:12.407Z,1.04
2022-11-17T03:29:12.519Z,1.04
2022-11-17T03:30:12.672Z,1.04
2022-11-17T03:31:12.812Z,1.04
2022-11-17T03:32:13.000Z,1.04
2022-11-17T03:33:13.132Z,1.04
2022-11-17T03:34:13.233Z,1.04
2022-11-17T03:35:13.400Z,1.04
2022-11-17T03:36:13.531Z,1.04
2022-11-17T03:37:13.639Z,1.04
2022-11-17T03:38:13.783Z,1.04
2022-11-17T03:39:13.888Z,1.04
2022-11-17T03:40:14.031Z,1.04
2022-11-17T03:41:14.136Z,1.04
2022-11-17T03:42:14.290Z,1.04
2022-11-17T03:43:14.500Z,1.04
2022-11-17T03:44:14.648Z,1.04
2022-11-17T03:45:14.816Z,1.04
2022-11-17T03:46:14.933Z,1.04
2022-11-17T03:47:15.095Z,1.04
2022-11-17T03:48:15.249Z,1.04
2022-11-17T03:49:15.416Z,1.04
2022-11-17T03:50:15.555Z,1.04
2022-11-17T03:51:15.702Z,1.04
2022-11-17T03:52:15.891Z,1.04
2022-11-17T03:53:16.003Z,1.04
2022-11-17T03:54:16.164Z,1.04
2022-11-17T03:55:16.306Z,1.04
2022-11-17T03:56:16.463Z,1.04
2022-11-17T03:57:16.610Z,1.04
2022-11-17T03:58:16.731Z,1.04
2022-11-17T03:59:16.849Z,1.04
2022-11-17T04:00:17.043Z,1.04
2022-11-17T04:01:17.195Z,1.04
2022-11-17T04:02:17.275Z,1.04
2022-11-17T04:03:17.424Z,1.04
2022-11-17T04:04:17.569Z,1.04
2022-11-17T04:05:17.734Z,1.04
2022-11-17T04:06:17.890Z,1.04
2022-11-17T04:07:18.098Z,1.04
2022-11-17T04:08:18.182Z,1.04
2022-11-17T04:09:23.007Z,1.04
2022-11-17T04:10:18.486Z,1.04
2022-11-17T04:11:18.594Z,1.04
2022-11-17T04:12:18.738Z,1.04
2022-11-17T04:13:18.889Z,1.04
2022-11-17T04:14:19.033Z,1.04
2022-11-17T04:15:19.194Z,1.04
2022-11-17T04:16:19.329Z,1.04
2022-11-17T04:17:19.498Z,1.04
2022-11-17T04:18:19.644Z,1.04
2022-11-17T04:19:19.794Z,1.04
2022-11-17T04:20:19.949Z,1.04
2022-11-17T04:21:20.098Z,1.04
2022-11-17T04:22:20.265Z,1.04
2022-11-17T04:23:20.348Z,1.04
2022-11-17T04:24:20.511Z,1.04
2022-11-17T04:25:20.677Z,1.04
2022-11-17T04:26:20.836Z,1.04
2022-11-17T04:27:20.971Z,1.04
2022-11-17T04:28:21.113Z,1.04
2022-11-17T04:29:21.261Z,1.04
2022-11-17T04:30:21.422Z,1.04
2022-11-17T04:31:21.550Z,1.04
2022-11-17T04:32:21.739Z,1.04
2022-11-17T04:33:21.871Z,1.04
2022-11-17T04:34:21.972Z,1.04
2022-11-17T04:35:22.130Z,1.04
2022-11-17T04:36:22.276Z,1.04
2022-11-17T04:37:22.427Z,1.04
2022-11-17T04:38:22.590Z,1.04
2022-11-17T04:39:22.739Z,1.04
2022-11-17T04:40:22.890Z,1.04
2022-11-17T04:41:23.037Z,1.04
2022-11-17T04:42:23.186Z,1.04
2022-11-17T04:43:23.339Z,1.04
2022-11-17T04:44:23.494Z,1.04
2022-11-17T04:45:23.635Z,1.04
2022-11-17T04:46:23.788Z,1.04
2022-11-17T04:47:23.941Z,1.04
2022-11-17T04:48:24.092Z,1.04
2022-11-17T04:49:24.245Z,1.04
2022-11-17T04:50:24.397Z,1.04
2022-11-17T04:51:24.553Z,1.04
2022-11-17T04:52:29.551Z,1.04
2022-11-17T04:53:24.860Z,1.04
2022-11-17T04:54:25.010Z,1.04
2022-11-17T04:55:25.114Z,1.04
2022-11-17T04:56:25.262Z,1.04
2022-11-17T04:57:25.436Z,1.04
2022-11-17T04:58:25.564Z,1.04
2022-11-17T04:59:25.718Z,1.04
2022-11-17T05:00:25.818Z,1.04
2022-11-17T05:01:25.950Z,1.04
2022-11-17T05:02:26.171Z,1.04
2022-11-17T05:03:26.271Z,1.04
2022-11-17T05:04:26.425Z,1.04
2022-11-17T05:05:26.564Z,1.04
2022-11-17T05:06:26.660Z,1.04
2022-11-17T05:07:26.874Z,1.04
2022-11-17T05:08:26.980Z,1.04
2022-11-17T05:09:27.126Z,1.04
2022-11-17T05:10:27.281Z,1.04
2022-11-17T05:11:27.478Z,1.04
2022-11-17T05:12:27.592Z,1.04
2022-11-17T05:13:27.744Z,1.04
2022-11-17T05:14:27.899Z,1.04
2022-11-17T05:15:28.042Z,1.04
2022-11-17T05:16:28.173Z,1.04
2022-11-17T05:17:28.304Z,1.04
2022-11-17T05:18:28.427Z,1.04
2022-11-17T05:19:28.594Z,1.04
2022-11-17T05:20:28.743Z,1.04
2022-11-17T05:21:28.897Z,1.04
2022-11-17T05:22:28.999Z,1.04
2022-11-17T05:23:29.147Z,1.04
2022-11-17T05:24:29.309Z,1.04
2022-11-17T05:25:29.452Z,1.04
2022-11-17T05:26:29.564Z,1.04
2022-11-17T05:27:29.718Z,1.04
2022-11-17T05:28:29.862Z,1.04
2022-11-17T05:29:30.025Z,1.04
2022-11-17T05:30:30.201Z,1.04
2022-11-17T05:31:30.349Z,1.04
2022-11-17T05:32:30.510Z,1.04
2022-11-17T05:33:34.976Z,1.04
2022-11-17T05:34:30.775Z,1.04
2022-11-17T05:35:30.927Z,1.04
2022-11-17T05:36:31.076Z,1.04
2022-11-17T05:37:31.234Z,1.04
2022-11-17T05:38:31.346Z,1.04
2022-11-17T05:39:31.463Z,1.04
2022-11-17T05:40:31.618Z,1.04
2022-11-17T05:41:31.711Z,1.04
2022-11-17T05:42:31.880Z,1.04
2022-11-17T05:43:32.114Z,1.04
2022-11-17T05:44:32.214Z,1.04
2022-11-17T05:45:32.522Z,1.04
2022-11-17T05:46:32.584Z,2
2022-11-17T05:47:32.691Z,2
2022-11-17T05:48:32.847Z,2
2022-11-17T05:49:33.010Z,2
2022-11-17T05:50:33.153Z,2
2022-11-17T05:51:33.295Z,3.04
2022-11-17T05:52:33.455Z,3.04
2022-11-17T05:53:33.788Z,4
2022-11-17T05:54:33.746Z,4
2022-11-17T05:55:33.904Z,5.04
2022-11-17T05:56:34.052Z,5.04
2022-11-17T05:57:34.206Z,6
2022-11-17T05:58:34.360Z,7.04
2022-11-17T05:59:34.502Z,9.04
2022-11-17T06:00:34.603Z,10
2022-11-17T06:01:34.755Z,12
2022-11-17T06:02:34.919Z,15.04
2022-11-17T06:03:35.356Z,18
2022-11-17T06:04:35.220Z,20
2022-11-17T06:05:35.268Z,24
2022-11-17T06:06:35.417Z,28
2022-11-17T06:07:35.648Z,33.04
2022-11-17T06:08:35.715Z,38
2022-11-17T06:09:35.866Z,43.04
2022-11-17T06:10:36.018Z,49.04
2022-11-17T06:11:36.167Z,57.04
2022-11-17T06:12:36.315Z,64
2022-11-17T06:13:36.628Z,72
2022-11-17T06:14:36.580Z,81.04
2022-11-17T06:15:36.673Z,85.04
2022-11-17T06:16:36.766Z,89.04
2022-11-17T06:17:36.867Z,92
2022-11-17T06:18:36.968Z,108
2022-11-17T06:19:37.074Z,134
2022-11-17T06:20:37.183Z,157.04
2022-11-17T06:21:56.752Z,186.08
2022-11-17T06:22:37.477Z,210.08
2022-11-17T06:23:37.725Z,226.08
2022-11-17T06:24:37.733Z,234.08
2022-11-17T06:25:37.831Z,253.12
2022-11-17T06:26:37.940Z,272
2022-11-17T06:27:38.039Z,288
2022-11-17T06:28:38.138Z,306.08
2022-11-17T06:29:42.623Z,322.08
2022-11-17T06:30:38.394Z,340.16
2022-11-17T06:31:38.543Z,356.16
2022-11-17T06:32:38.690Z,372.16
2022-11-17T06:33:38.896Z,397.12
2022-11-17T06:34:38.941Z,419.2
2022-11-17T06:35:39.093Z,457.28
2022-11-17T06:36:39.203Z,487.04
2022-11-17T06:37:39.355Z,530.24
2022-11-17T06:38:39.456Z,567.04
2022-11-17T06:39:39.571Z,606.08
2022-11-17T06:40:39.708Z,658.56
2022-11-17T06:41:39.863Z,701.44
2022-11-17T06:42:39.966Z,742.4
2022-11-17T06:43:40.060Z,798.08
2022-11-17T06:44:40.181Z,837.12
2022-11-17T06:45:40.313Z,871.04
2022-11-17T06:46:42.679Z,911.36
2022-11-17T06:47:40.530Z,944
2022-11-17T06:48:40.627Z,977.28
2022-11-17T06:49:40.795Z,993.28
2022-11-17T06:50:40.922Z,995.2
2022-11-17T06:51:44.882Z,995.2
2022-11-17T06:52:41.154Z,1006.08
2022-11-17T06:53:41.235Z,1022.08
2022-11-17T06:54:41.426Z,1047.04
2022-11-17T06:55:41.578Z,1073.28
2022-11-17T06:56:41.728Z,1091.2
2022-11-17T06:57:41.888Z,1113.6
2022-11-17T06:58:41.984Z,1124.48
2022-11-17T06:59:42.154Z,1135.36
2022-11-17T07:00:42.301Z,1139.2
2022-11-17T07:01:42.442Z,1141.12
2022-11-17T07:02:42.583Z,1141.12
2022-11-17T07:03:42.687Z,1143.04
2022-11-17T07:04:42.843Z,1149.44
2022-11-17T07:05:42.993Z,1159.04
2022-11-17T07:06:43.151Z,1159.04
2022-11-17T07:07:43.299Z,1142.4
2022-11-17T07:08:43.399Z,1133.44
2022-11-17T07:09:43.499Z,1140.48
2022-11-17T07:10:46.508Z,1170.56
2022-11-17T07:11:43.714Z,1227.52
2022-11-17T07:12:43.802Z,1278.08
2022-11-17T07:13:43.912Z,1425.92
2022-11-17T07:14:44.073Z,1521.92
2022-11-17T07:15:44.205Z,1648.64
2022-11-17T07:16:44.365Z,1751.04
2022-11-17T07:17:44.570Z,1891.84
2022-11-17T07:18:44.672Z,1981.44
2022-11-17T07:19:44.894Z,2085.12
2022-11-17T07:20:44.919Z,2163.2
2022-11-17T07:21:45.104Z,2231.04
2022-11-17T07:22:45.225Z,2277.12
2022-11-17T07:23:45.330Z,2346.24
2022-11-17T07:24:45.475Z,2414.08
2022-11-17T07:25:45.629Z,2526.72
2022-11-17T07:26:45.725Z,2626.56
2022-11-17T07:27:45.830Z,2790.4
2022-11-17T07:28:45.982Z,2941.44
2022-11-17T07:29:46.093Z,3128.32
2022-11-17T07:30:46.254Z,3289.6
2022-11-17T07:31:46.383Z,3427.84
2022-11-17T07:32:49.497Z,3578.88
2022-11-17T07:33:46.647Z,3688.96
2022-11-17T07:34:46.800Z,3827.2
2022-11-17T07:35:46.980Z,3924.48
2022-11-17T07:36:47.105Z,4057.6
2022-11-17T07:37:47.244Z,4160
2022-11-17T07:38:47.397Z,4244.48
2022-11-17T07:39:47.556Z,4300.8
2022-11-17T07:40:47.723Z,4334.08
2022-11-17T07:41:47.873Z,4334.08
2022-11-17T07:42:48.009Z,4316.16
2022-11-17T07:43:48.145Z,4282.88
2022-11-17T07:44:48.276Z,4247.04
2022-11-17T07:45:48.366Z,4234.24
2022-11-17T07:46:48.489Z,4234.24
2022-11-17T07:47:48.674Z,4247.04
2022-11-17T07:48:48.848Z,4252.16
2022-11-17T07:49:48.988Z,4267.52
2022-11-17T07:50:49.153Z,4298.24
2022-11-17T07:51:49.272Z,4326.4
2022-11-17T07:52:49.445Z,4413.44
2022-11-17T07:53:49.606Z,4520.96
2022-11-17T07:54:49.752Z,4646.4
2022-11-17T07:55:49.887Z,4817.92
2022-11-17T07:56:50.051Z,5084.16
2022-11-17T07:57:50.201Z,5335.04
2022-11-17T07:58:50.349Z,5672.96
2022-11-17T07:59:50.499Z,5913.6
2022-11-17T08:00:50.723Z,6231.04
2022-11-17T08:01:50.748Z,6446.08
2022-11-17T08:02:50.905Z,6635.52
2022-11-17T08:03:51.127Z,6748.16
2022-11-17T08:04:51.195Z,6824.96
2022-11-17T08:05:51.387Z,6855.68
2022-11-17T08:06:51.516Z,6865.92
2022-11-17T08:07:51.682Z,6835.2
2022-11-17T08:08:51.830Z,6568.96
2022-11-17T08:09:51.979Z,6292.48
2022-11-17T08:10:52.123Z,6000.64
2022-11-17T08:11:52.268Z,5790.72
2022-11-17T08:12:52.422Z,5519.36
2022-11-17T08:13:52.517Z,5299.2
2022-11-17T08:14:52.627Z,5017.6
2022-11-17T08:15:52.765Z,4820.48
2022-11-17T08:16:52.962Z,4592.64
2022-11-17T08:17:53.143Z,4439.04
2022-11-17T08:18:53.303Z,4221.44
2022-11-17T08:19:53.328Z,4024.32
2022-11-17T08:20:53.498Z,3819.52
2022-11-17T08:21:53.643Z,3540.48
2022-11-17T08:22:53.803Z,3333.12
2022-11-17T08:23:53.925Z,3046.4
2022-11-17T08:24:54.095Z,2849.28
2022-11-17T08:25:54.206Z,2590.72
2022-11-17T08:26:54.326Z,2411.52
2022-11-17T08:27:54.444Z,2259.2
2022-11-17T08:28:58.307Z,2186.24
2022-11-17T08:29:54.760Z,2160.64
2022-11-17T08:30:54.890Z,2181.12
2022-11-17T08:31:55.034Z,2233.6
2022-11-17T08:32:55.196Z,2339.84
2022-11-17T08:33:55.374Z,2429.44
2022-11-17T08:34:55.496Z,2560
2022-11-17T08:35:55.639Z,2693.12
2022-11-17T08:36:55.764Z,2903.04
2022-11-17T08:37:55.912Z,3087.36
2022-11-17T08:38:56.056Z,3330.56
2022-11-17T08:39:56.164Z,3514.88
2022-11-17T08:40:56.318Z,3732.48
2022-11-17T08:41:56.502Z,3880.96
2022-11-17T08:43:00.821Z,4067.84
2022-11-17T08:43:56.774Z,4206.08
2022-11-17T08:44:56.906Z,4372.48
2022-11-17T08:45:57.060Z,4541.44
2022-11-17T08:46:57.223Z,4664.32
2022-11-17T08:47:57.387Z,4659.2
2022-11-17T08:48:57.535Z,4597.76
2022-11-17T08:49:57.634Z,4487.68
2022-11-17T08:50:57.781Z,4321.28
2022-11-17T08:51:57.935Z,4188.16
2022-11-17T08:52:58.084Z,4044.8
2022-11-17T08:53:58.237Z,3924.48
2022-11-17T08:54:58.412Z,3852.8
2022-11-17T08:55:58.605Z,3824.64
2022-11-17T08:56:58.724Z,3822.08
2022-11-17T08:57:58.843Z,3837.44
2022-11-17T08:58:58.947Z,3898.88
2022-11-17T08:59:59.084Z,4024.32
2022-11-17T09:01:03.939Z,4221.44
2022-11-17T09:01:59.299Z,4431.36
2022-11-17T09:02:59.471Z,4692.48
2022-11-17T09:03:59.592Z,4866.56
2022-11-17T09:04:59.690Z,5027.84
2022-11-17T09:05:59.850Z,5173.76
2022-11-17T09:07:00.059Z,5314.56
2022-11-17T09:08:16.185Z,5468.16
2022-11-17T09:09:00.661Z,5575.68
2022-11-17T09:10:00.456Z,5703.68
2022-11-17T09:11:00.614Z,5754.88
2022-11-17T09:12:00.762Z,5729.28
2022-11-17T09:13:00.909Z,5626.88
2022-11-17T09:14:01.068Z,5504
2022-11-17T09:15:01.223Z,5401.6
2022-11-17T09:16:01.312Z,5432.32
2022-11-17T09:17:01.476Z,5509.12
2022-11-17T09:18:01.625Z,5632
2022-11-17T09:19:01.724Z,5847.04
2022-11-17T09:20:01.874Z,6067.2
2022-11-17T09:21:01.984Z,6425.6
2022-11-17T09:22:02.125Z,6666.24
2022-11-17T09:23:02.235Z,6830.08
2022-11-17T09:24:02.387Z,6865.92
2022-11-17T09:25:02.550Z,6901.76
2022-11-17T09:26:02.680Z,6942.72
2022-11-17T09:27:02.847Z,6952.96
2022-11-17T09:28:02.992Z,6906.88
2022-11-17T09:29:03.143Z,6778.88
2022-11-17T09:30:03.292Z,6604.8
2022-11-17T09:31:03.486Z,6338.56
2022-11-17T09:32:03.598Z,6195.2
2022-11-17T09:33:03.751Z,6190.08
2022-11-17T09:34:05.496Z,6369.28
2022-11-17T09:35:04.043Z,6609.92
2022-11-17T09:36:04.192Z,6958.08
2022-11-17T09:37:04.292Z,7239.68
2022-11-17T09:38:04.397Z,7393.28
2022-11-17T09:39:04.493Z,7249.92
2022-11-17T09:40:04.667Z,6753.28
2022-11-17T09:41:04.801Z,6220.8
2022-11-17T09:42:04.960Z,5826.56
2022-11-17T09:43:05.111Z,5509.12
2022-11-17T09:44:05.275Z,5376
2022-11-17T09:45:05.414Z,5230.08
2022-11-17T09:46:07.601Z,4976.64
2022-11-17T09:47:05.722Z,4743.68
2022-11-17T09:48:25.800Z,4433.92
2022-11-17T09:49:06.027Z,3944.96
2022-11-17T09:50:06.188Z,3525.12
2022-11-17T09:51:06.277Z,3312.64
2022-11-17T09:52:06.432Z,3212.8
2022-11-17T09:53:06.535Z,3194.88
2022-11-17T09:54:06.685Z,3243.52
2022-11-17T09:55:06.830Z,3386.88
2022-11-17T09:56:06.941Z,3550.72
2022-11-17T09:57:07.085Z,3827.2
2022-11-17T09:58:07.246Z,4057.6
2022-11-17T09:59:07.387Z,4364.8
2022-11-17T10:00:07.547Z,4695.04
2022-11-17T10:01:07.678Z,5045.76
2022-11-17T10:02:07.855Z,5529.6
2022-11-17T10:03:07.940Z,5857.28
2022-11-17T10:04:08.001Z,6195.2
2022-11-17T10:05:08.183Z,6456.32
2022-11-17T10:06:08.299Z,6773.76
2022-11-17T10:07:08.416Z,7050.24
2022-11-17T10:08:08.560Z,7060.48
2022-11-17T10:09:08.725Z,7019.52
2022-11-17T10:10:08.854Z,7024.64
2022-11-17T10:11:09.017Z,7162.88
2022-11-17T10:12:09.170Z,7342.08
2022-11-17T10:13:09.342Z,7526.4
2022-11-17T10:14:09.456Z,7618.56
2022-11-17T10:15:09.613Z,7695.36
2022-11-17T10:16:09.757Z,7833.6
2022-11-17T10:17:09.918Z,8186.88
2022-11-17T10:18:10.069Z,8663.04
2022-11-17T10:19:10.220Z,9451.52
2022-11-17T10:20:10.380Z,10240
2022-11-17T10:21:10.474Z,11089.92
2022-11-17T10:22:10.620Z,11294.72
2022-11-17T10:23:10.767Z,10813.439
2022-11-17T10:24:10.937Z,9896.96
2022-11-17T10:25:11.084Z,8601.6
2022-11-17T10:26:11.219Z,7813.12
2022-11-17T10:27:11.390Z,7168
2022-11-17T10:28:11.535Z,6927.36
2022-11-17T10:29:11.697Z,6650.88
2022-11-17T10:30:11.833Z,6568.96
2022-11-17T10:31:11.925Z,6615.04
2022-11-17T10:32:12.088Z,6440.96
2022-11-17T10:33:12.190Z,6333.44
2022-11-17T10:34:12.305Z,6251.52
2022-11-17T10:35:12.447Z,6133.76
2022-11-17T10:36:12.596Z,5770.24
2022-11-17T10:37:12.747Z,5340.16
2022-11-17T10:38:12.904Z,4766.72
2022-11-17T10:39:17.664Z,4416
2022-11-17T10:40:13.207Z,4165.12
2022-11-17T10:41:13.357Z,3998.72
2022-11-17T10:42:13.461Z,3845.12
2022-11-17T10:43:13.624Z,3747.84
2022-11-17T10:44:13.761Z,3548.16
2022-11-17T10:45:13.912Z,3397.12
2022-11-17T10:46:14.004Z,3397.12
2022-11-17T10:47:14.103Z,3566.08
2022-11-17T10:48:14.272Z,3901.44
2022-11-17T10:49:14.462Z,4252.16
2022-11-17T10:50:14.997Z,4623.36
2022-11-17T10:51:14.687Z,4659.2
2022-11-17T10:52:14.820Z,4523.52
2022-11-17T10:53:14.970Z,4559.36
2022-11-17T10:54:15.131Z,4864
2022-11-17T10:55:15.265Z,5488.64
2022-11-17T10:56:15.438Z,6190.08
2022-11-17T10:57:15.583Z,6876.16
2022-11-17T10:58:15.733Z,7296
2022-11-17T10:59:15.890Z,7183.36
2022-11-17T11:00:16.045Z,6348.8
2022-11-17T11:01:16.213Z,5498.88
2022-11-17T11:02:16.360Z,5191.68
2022-11-17T11:03:16.488Z,5463.04
2022-11-17T11:04:16.651Z,5550.08
2022-11-17T11:05:16.794Z,5427.2
2022-11-17T11:06:17.628Z,5025.28
2022-11-17T11:07:17.159Z,4439.04
2022-11-17T11:08:17.244Z,4170.24
2022-11-17T11:09:17.403Z,4203.52
2022-11-17T11:10:17.555Z,4567.04
2022-11-17T11:11:17.698Z,5294.08
2022-11-17T11:12:17.848Z,6446.08
2022-11-17T11:13:18.012Z,7168
2022-11-17T11:14:18.170Z,7296
2022-11-17T11:15:18.326Z,7075.84
2022-11-17T11:16:18.463Z,6522.88
2022-11-17T11:17:18.611Z,6123.52
2022-11-17T11:18:18.765Z,6353.92
2022-11-17T11:19:18.913Z,6963.2
2022-11-17T11:20:19.079Z,8775.68
2022-11-17T11:21:19.201Z,11182.08
2022-11-17T11:22:21.312Z,13701.12
2022-11-17T11:23:19.474Z,14592
2022-11-17T11:24:19.624Z,14837.76
2022-11-17T11:25:19.784Z,14069.76
2022-11-17T11:26:19.932Z,12523.52
2022-11-17T11:27:20.032Z,10547.2
2022-11-17T11:28:20.180Z,9052.16
2022-11-17T11:29:20.337Z,7818.24
2022-11-17T11:30:20.495Z,7208.96
2022-11-17T11:31:20.619Z,6963.2
2022-11-17T11:32:20.793Z,6988.8
2022-11-17T11:33:20.935Z,7234.56
2022-11-17T11:34:21.092Z,7562.24
2022-11-17T11:35:21.245Z,7956.48
2022-11-17T11:36:21.390Z,8161.28
2022-11-17T11:37:21.491Z,7961.6
2022-11-17T11:38:21.644Z,7331.84
2022-11-17T11:39:21.796Z,6737.92
2022-11-17T11:40:21.948Z,6528
2022-11-17T11:41:22.095Z,6763.52
2022-11-17T11:42:22.313Z,7290.88
2022-11-17T11:43:22.406Z,7598.08
2022-11-17T11:44:22.512Z,7306.24
2022-11-17T11:45:22.666Z,6568.96
2022-11-17T11:46:22.751Z,5939.2
2022-11-17T11:47:22.916Z,5253.12
2022-11-17T11:48:23.064Z,4853.76
2022-11-17T11:49:23.166Z,4620.8
2022-11-17T11:50:23.318Z,4646.4
2022-11-17T11:51:23.466Z,4843.52
2022-11-17T11:52:23.601Z,5148.16
2022-11-17T11:53:23.705Z,5760
2022-11-17T11:54:23.878Z,6609.92
2022-11-17T11:55:23.982Z,8673.28
2022-11-17T11:56:24.124Z,11264
2022-11-17T11:57:24.272Z,14571.52
2022-11-17T11:58:24.433Z,18155.52
2022-11-17T11:59:24.575Z,20193.28
2022-11-17T12:00:24.689Z,21340.16
2022-11-17T12:01:24.821Z,21196.8
2022-11-17T12:02:24.964Z,19845.12
2022-11-17T12:03:25.124Z,19179.52
2022-11-17T12:04:25.250Z,18442.24
2022-11-17T12:05:25.392Z,15175.68
2022-11-17T12:06:25.543Z,12687.359
2022-11-17T12:07:25.750Z,12605.439
2022-11-17T12:08:25.843Z,13137.92
2022-11-17T12:09:25.993Z,14315.52
2022-11-17T12:10:26.157Z,14561.279
2022-11-17T12:11:26.315Z,16629.76
2022-11-17T12:12:26.445Z,17500.16
2022-11-17T12:13:26.604Z,18472.96
2022-11-17T12:14:26.752Z,20213.76
2022-11-17T12:15:26.900Z,18513.92
2022-11-17T12:16:27.045Z,18257.92
2022-11-17T12:17:27.200Z,18032.64
2022-11-17T12:18:27.393Z,18145.28
2022-11-17T12:19:27.513Z,18370.56
2022-11-17T12:20:27.675Z,16465.92
2022-11-17T12:21:27.819Z,13824
2022-11-17T12:22:27.926Z,13291.52
2022-11-17T12:23:28.076Z,13434.88
2022-11-17T12:24:28.259Z,12851.2
2022-11-17T12:25:28.372Z,12462.08
2022-11-17T12:26:28.518Z,13578.239
2022-11-17T12:27:28.675Z,14632.96
2022-11-17T12:28:28.824Z,14428.16
2022-11-17T12:29:28.964Z,12840.96
2022-11-17T12:30:29.080Z,11366.399
2022-11-17T12:31:29.218Z,11315.2
2022-11-17T12:32:29.380Z,12421.12
2022-11-17T12:33:29.539Z,14120.96
2022-11-17T12:34:29.632Z,14776.319
2022-11-17T12:35:29.793Z,14264.319
2022-11-17T12:36:31.050Z,14008.319
2022-11-17T12:37:30.107Z,14520.319
2022-11-17T12:38:30.231Z,15278.08
2022-11-17T12:39:30.375Z,14438.399
2022-11-17T12:40:31.057Z,14407.68
2022-11-17T12:41:30.601Z,16209.92
2022-11-17T12:42:30.752Z,15790.08
2022-11-17T12:43:30.852Z,14131.199
2022-11-17T12:44:30.999Z,12103.68
2022-11-17T12:45:31.149Z,10465.279